This is the latest recevied weather packets stored in our database for station/object 4S6DRJ-13. If no packets are shown the sender has not sent any weather packets the latest 10 day(s).
| Time | Temp. | Humidity | Pressure | Rain* | Wind** | Luminosity | Snow |
|---|---|---|---|---|---|---|---|
| 1788154871 | 31.11° C | 70% | 1009.2 hPa | 0 mm | 1.34 m/s, 243° | 520 W/m² | - |
| 1788154810 | 31.11° C | 71% | 1009.2 hPa | 0 mm | 0.89 m/s, 221° | 570 W/m² | - |
| 1788154749 | 31.11° C | 70% | 1009.3 hPa | 0 mm | 0.45 m/s, 352° | 564 W/m² | - |
| 1788154704 | 31.11° C | 70% | 1009.4 hPa | 0 mm | 1.79 m/s, 203° | 382 W/m² | - |
| 1788154627 | 31.11° C | 70% | 1009.2 hPa | 0 mm | 1.34 m/s, 296° | 1127 W/m² | - |
| 1788154566 | 31.11° C | 69% | 1009.2 hPa | 0 mm | 1.34 m/s, 243° | 318 W/m² | - |
| 1788154505 | 31.11° C | 69% | 1009.1 hPa | 0 mm | 1.34 m/s, 52° | 365 W/m² | - |
| 1788154444 | 31.11° C | 69% | 1009.3 hPa | 0 mm | 2.24 m/s, 233° | 467 W/m² | - |
| 1788154382 | 31.67° C | 69% | 1009.2 hPa | 0 mm | 1.34 m/s, 276° | 556 W/m² | - |
| 1788154322 | 31.67° C | 68% | 1009.2 hPa | 0 mm | 2.24 m/s, 201° | 344 W/m² | - |
| 1788154260 | 31.67° C | 68% | 1009.4 hPa | 0 mm | 3.13 m/s, 307° | 715 W/m² | - |
| 1788154199 | 31.67° C | 68% | 1009.2 hPa | 0 mm | 1.34 m/s, 334° | 1116 W/m² | - |
| 1788154138 | 31.67° C | 67% | 1009.3 hPa | 0 mm | 0.89 m/s, 132° | 493 W/m² | - |
| 1788154077 | 31.67° C | 68% | 1009.2 hPa | 0 mm | 1.34 m/s, 263° | 1125 W/m² | - |
| 1788154016 | 31.67° C | 67% | 1009.4 hPa | 0 mm | 1.79 m/s, 280° | 1111 W/m² | - |
| 1788153955 | 31.67° C | 68% | 1009.3 hPa | 0 mm | 0.45 m/s, 159° | 553 W/m² | - |
| 1788153895 | 31.67° C | 68% | 1009.3 hPa | 0 mm | 0.89 m/s, 337° | 1119 W/m² | - |
| 1788153833 | 31.11° C | 69% | 1009.4 hPa | 0 mm | 0.89 m/s, 297° | 360 W/m² | - |
| 1788153772 | 31.11° C | 69% | 1009.5 hPa | 0 mm | 0.45 m/s, 224° | 1105 W/m² | - |
| 1788153712 | 31.11° C | 68% | 1009.5 hPa | 0 mm | 0.45 m/s, 209° | 1116 W/m² | - |
| 1788153652 | 31.11° C | 70% | 1009.3 hPa | 0 mm | 1.79 m/s, 306° | 1113 W/m² | - |
| 1788153590 | 31.11° C | 70% | 1009.4 hPa | 0 mm | 0.45 m/s, 252° | 335 W/m² | - |
| 1788153529 | 31.11° C | 70% | 1009.5 hPa | 0 mm | 1.79 m/s, 309° | 1123 W/m² | - |
| 1788153468 | 31.11° C | 70% | 1009.5 hPa | 0 mm | 1.79 m/s, 321° | 1122 W/m² | - |
| 1788153407 | 31.11° C | 70% | 1009.5 hPa | 0 mm | 0.89 m/s, 231° | 921 W/m² | - |
* Rain latest hour (hover to see other rain measurements)
** Current wind speed in m/s (hover to see current wind gust speed)